Terminal Aerodrome Forecast
Issued by NWS Twin Cities, MN

Home | Current Version | Previous Version | Graphics & Text | Print | Product List | Glossary On
Versions: 1 2 3 4 5 6 7 8 9 10 11 12 13 14 15 16 17 18 19 20 21 22 23 24
000
FTUS43 KMPX 290900 AAB
TAFEAU
TAF AMD
KEAU 290950Z 2910/3006 VRB03KT 6SM BR SCT009
      TEMPO 2910/2911 BKN009
     FM291100 36008KT P6SM OVC009
     FM291500 02009KT P6SM VCSH BKN010 OVC025
     FM292100 04008KT P6SM BKN035
     FM300000 07007KT P6SM SCT040=

USA.gov is the U.S. government's official web portal to all federal, state and local government web resources and services.